sensor_id;sensor_type;location;lat;lon;timestamp;P1;durP1;ratioP1;P2;durP2;ratioP2
7539;SDS011;3811;49.006;12.076;2022-07-29T00:01:56;3.53;;;3.23;;
7539;SDS011;3811;49.006;12.076;2022-07-29T00:04:24;4.97;;;3.17;;
7539;SDS011;3811;49.006;12.076;2022-07-29T00:06:51;4.50;;;3.10;;
7539;SDS011;3811;49.006;12.076;2022-07-29T00:09:18;4.33;;;3.37;;
7539;SDS011;3811;49.006;12.076;2022-07-29T00:11:45;3.27;;;2.97;;
7539;SDS011;3811;49.006;12.076;2022-07-29T00:14:13;3.00;;;2.80;;
7539;SDS011;3811;49.006;12.076;2022-07-29T00:16:41;3.40;;;3.10;;
7539;SDS011;3811;49.006;12.076;2022-07-29T00:19:08;3.10;;;2.90;;
7539;SDS011;3811;49.006;12.076;2022-07-29T00:21:35;3.00;;;2.80;;
7539;SDS011;3811;49.006;12.076;2022-07-29T00:24:03;2.80;;;2.60;;
7539;SDS011;3811;49.006;12.076;2022-07-29T00:26:30;5.70;;;3.10;;
7539;SDS011;3811;49.006;12.076;2022-07-29T00:28:58;3.43;;;3.13;;
7539;SDS011;3811;49.006;12.076;2022-07-29T00:31:25;3.93;;;3.00;;
7539;SDS011;3811;49.006;12.076;2022-07-29T00:33:54;3.63;;;3.10;;
7539;SDS011;3811;49.006;12.076;2022-07-29T00:36:21;4.57;;;3.03;;
7539;SDS011;3811;49.006;12.076;2022-07-29T00:38:48;5.27;;;3.17;;
7539;SDS011;3811;49.006;12.076;2022-07-29T00:41:15;4.43;;;3.10;;
7539;SDS011;3811;49.006;12.076;2022-07-29T00:43:43;2.90;;;2.70;;
7539;SDS011;3811;49.006;12.076;2022-07-29T00:46:10;2.90;;;2.70;;
7539;SDS011;3811;49.006;12.076;2022-07-29T00:48:38;4.37;;;3.00;;
7539;SDS011;3811;49.006;12.076;2022-07-29T00:51:06;8.10;;;3.30;;
7539;SDS011;3811;49.006;12.076;2022-07-29T00:53:35;4.77;;;2.90;;
7539;SDS011;3811;49.006;12.076;2022-07-29T00:56:02;3.77;;;3.20;;
7539;SDS011;3811;49.006;12.076;2022-07-29T00:58:30;5.60;;;3.53;;
7539;SDS011;3811;49.006;12.076;2022-07-29T01:00:57;4.50;;;3.50;;
7539;SDS011;3811;49.006;12.076;2022-07-29T01:03:24;4.17;;;3.47;;
7539;SDS011;3811;49.006;12.076;2022-07-29T01:05:52;7.60;;;3.60;;
7539;SDS011;3811;49.006;12.076;2022-07-29T01:08:21;4.77;;;3.30;;
7539;SDS011;3811;49.006;12.076;2022-07-29T01:10:49;3.57;;;3.30;;
7539;SDS011;3811;49.006;12.076;2022-07-29T01:13:18;3.73;;;3.27;;
7539;SDS011;3811;49.006;12.076;2022-07-29T01:15:47;3.33;;;2.87;;
7539;SDS011;3811;49.006;12.076;2022-07-29T01:18:21;3.57;;;2.90;;
7539;SDS011;3811;49.006;12.076;2022-07-29T01:20:58;3.47;;;3.17;;
7539;SDS011;3811;49.006;12.076;2022-07-29T01:23:51;3.53;;;3.23;;
7539;SDS011;3811;49.006;12.076;2022-07-29T01:26:33;3.27;;;3.07;;
7539;SDS011;3811;49.006;12.076;2022-07-29T01:29:10;4.13;;;2.97;;
7539;SDS011;3811;49.006;12.076;2022-07-29T01:31:42;3.70;;;3.47;;
7539;SDS011;3811;49.006;12.076;2022-07-29T01:34:15;3.50;;;3.20;;
7539;SDS011;3811;49.006;12.076;2022-07-29T01:36:48;3.40;;;3.20;;
7539;SDS011;3811;49.006;12.076;2022-07-29T01:39:19;3.30;;;3.00;;
7539;SDS011;3811;49.006;12.076;2022-07-29T01:41:51;3.30;;;3.10;;
7539;SDS011;3811;49.006;12.076;2022-07-29T01:44:26;3.50;;;3.20;;
7539;SDS011;3811;49.006;12.076;2022-07-29T01:47:00;3.43;;;3.13;;
7539;SDS011;3811;49.006;12.076;2022-07-29T01:49:33;3.70;;;3.40;;
7539;SDS011;3811;49.006;12.076;2022-07-29T01:52:07;3.30;;;3.10;;
7539;SDS011;3811;49.006;12.076;2022-07-29T01:54:43;9.33;;;3.50;;
7539;SDS011;3811;49.006;12.076;2022-07-29T01:57:15;4.00;;;3.57;;
7539;SDS011;3811;49.006;12.076;2022-07-29T01:59:46;3.93;;;3.50;;
7539;SDS011;3811;49.006;12.076;2022-07-29T02:02:15;5.27;;;3.77;;
7539;SDS011;3811;49.006;12.076;2022-07-29T02:04:44;5.03;;;3.30;;
7539;SDS011;3811;49.006;12.076;2022-07-29T02:07:15;3.90;;;3.50;;
7539;SDS011;3811;49.006;12.076;2022-07-29T02:09:45;3.87;;;3.40;;
7539;SDS011;3811;49.006;12.076;2022-07-29T02:12:16;3.40;;;3.10;;
7539;SDS011;3811;49.006;12.076;2022-07-29T02:14:44;3.73;;;3.23;;
7539;SDS011;3811;49.006;12.076;2022-07-29T02:17:14;3.47;;;3.10;;
7539;SDS011;3811;49.006;12.076;2022-07-29T02:19:48;4.83;;;3.40;;
7539;SDS011;3811;49.006;12.076;2022-07-29T02:22:16;4.00;;;3.20;;
7539;SDS011;3811;49.006;12.076;2022-07-29T02:24:46;3.40;;;3.10;;
7539;SDS011;3811;49.006;12.076;2022-07-29T02:27:14;4.53;;;3.27;;
7539;SDS011;3811;49.006;12.076;2022-07-29T02:29:44;3.20;;;3.00;;
7539;SDS011;3811;49.006;12.076;2022-07-29T02:32:13;3.27;;;3.03;;
7539;SDS011;3811;49.006;12.076;2022-07-29T02:34:42;3.30;;;3.00;;
7539;SDS011;3811;49.006;12.076;2022-07-29T02:37:11;3.20;;;3.00;;
7539;SDS011;3811;49.006;12.076;2022-07-29T02:39:40;4.07;;;2.60;;
7539;SDS011;3811;49.006;12.076;2022-07-29T02:42:10;3.30;;;3.00;;
7539;SDS011;3811;49.006;12.076;2022-07-29T02:44:39;5.90;;;3.00;;
7539;SDS011;3811;49.006;12.076;2022-07-29T02:47:07;3.50;;;3.17;;
7539;SDS011;3811;49.006;12.076;2022-07-29T02:49:42;4.40;;;3.20;;
7539;SDS011;3811;49.006;12.076;2022-07-29T02:52:18;3.23;;;2.87;;
7539;SDS011;3811;49.006;12.076;2022-07-29T02:54:51;4.73;;;2.90;;
7539;SDS011;3811;49.006;12.076;2022-07-29T02:57:21;2.87;;;2.60;;
7539;SDS011;3811;49.006;12.076;2022-07-29T02:59:55;7.20;;;2.87;;
7539;SDS011;3811;49.006;12.076;2022-07-29T03:02:25;4.40;;;2.80;;
7539;SDS011;3811;49.006;12.076;2022-07-29T03:04:54;3.63;;;3.13;;
7539;SDS011;3811;49.006;12.076;2022-07-29T03:07:23;4.50;;;3.30;;
7539;SDS011;3811;49.006;12.076;2022-07-29T03:09:51;5.60;;;3.40;;
7539;SDS011;3811;49.006;12.076;2022-07-29T03:12:20;3.03;;;2.83;;
7539;SDS011;3811;49.006;12.076;2022-07-29T03:14:49;3.00;;;2.80;;
7539;SDS011;3811;49.006;12.076;2022-07-29T03:17:16;3.53;;;3.23;;
7539;SDS011;3811;49.006;12.076;2022-07-29T03:19:44;6.77;;;3.17;;
7539;SDS011;3811;49.006;12.076;2022-07-29T03:22:13;3.10;;;2.90;;
7539;SDS011;3811;49.006;12.076;2022-07-29T03:24:40;3.30;;;3.10;;
7539;SDS011;3811;49.006;12.076;2022-07-29T03:27:07;3.70;;;3.40;;
7539;SDS011;3811;49.006;12.076;2022-07-29T03:29:35;4.53;;;3.07;;
7539;SDS011;3811;49.006;12.076;2022-07-29T03:32:03;3.03;;;2.77;;
7539;SDS011;3811;49.006;12.076;2022-07-29T03:34:31;3.80;;;3.50;;
7539;SDS011;3811;49.006;12.076;2022-07-29T03:36:59;3.30;;;3.00;;
7539;SDS011;3811;49.006;12.076;2022-07-29T03:39:29;3.17;;;2.87;;
7539;SDS011;3811;49.006;12.076;2022-07-29T03:41:59;3.40;;;3.20;;
7539;SDS011;3811;49.006;12.076;2022-07-29T03:44:28;3.10;;;2.90;;
7539;SDS011;3811;49.006;12.076;2022-07-29T03:46:57;4.27;;;3.20;;
7539;SDS011;3811;49.006;12.076;2022-07-29T03:49:27;3.50;;;3.20;;
7539;SDS011;3811;49.006;12.076;2022-07-29T03:51:55;3.20;;;3.00;;
7539;SDS011;3811;49.006;12.076;2022-07-29T03:54:22;3.33;;;2.97;;
7539;SDS011;3811;49.006;12.076;2022-07-29T03:56:50;3.40;;;3.10;;
7539;SDS011;3811;49.006;12.076;2022-07-29T03:59:21;5.40;;;3.50;;
7539;SDS011;3811;49.006;12.076;2022-07-29T04:01:49;3.33;;;3.03;;
7539;SDS011;3811;49.006;12.076;2022-07-29T04:04:16;3.67;;;3.37;;
7539;SDS011;3811;49.006;12.076;2022-07-29T04:06:45;3.50;;;3.10;;
7539;SDS011;3811;49.006;12.076;2022-07-29T04:09:12;3.73;;;3.40;;
7539;SDS011;3811;49.006;12.076;2022-07-29T04:11:40;4.63;;;3.23;;
7539;SDS011;3811;49.006;12.076;2022-07-29T04:14:09;4.60;;;2.90;;
7539;SDS011;3811;49.006;12.076;2022-07-29T04:16:36;4.70;;;3.40;;
7539;SDS011;3811;49.006;12.076;2022-07-29T04:19:03;5.00;;;3.50;;
7539;SDS011;3811;49.006;12.076;2022-07-29T04:21:31;3.60;;;3.40;;
7539;SDS011;3811;49.006;12.076;2022-07-29T04:23:58;4.00;;;3.30;;
7539;SDS011;3811;49.006;12.076;2022-07-29T04:26:25;3.87;;;3.57;;
7539;SDS011;3811;49.006;12.076;2022-07-29T04:28:53;5.23;;;3.40;;
7539;SDS011;3811;49.006;12.076;2022-07-29T04:31:23;4.37;;;3.20;;
7539;SDS011;3811;49.006;12.076;2022-07-29T04:33:51;4.27;;;3.13;;
7539;SDS011;3811;49.006;12.076;2022-07-29T04:36:18;3.30;;;3.10;;
7539;SDS011;3811;49.006;12.076;2022-07-29T04:38:46;5.57;;;3.30;;
7539;SDS011;3811;49.006;12.076;2022-07-29T04:41:13;3.47;;;3.17;;
7539;SDS011;3811;49.006;12.076;2022-07-29T04:43:40;3.40;;;3.10;;
7539;SDS011;3811;49.006;12.076;2022-07-29T04:46:07;5.13;;;3.47;;
7539;SDS011;3811;49.006;12.076;2022-07-29T04:48:36;3.27;;;2.90;;
7539;SDS011;3811;49.006;12.076;2022-07-29T04:51:03;4.73;;;3.17;;
7539;SDS011;3811;49.006;12.076;2022-07-29T04:53:31;5.03;;;3.50;;
7539;SDS011;3811;49.006;12.076;2022-07-29T04:55:58;4.07;;;3.33;;
7539;SDS011;3811;49.006;12.076;2022-07-29T04:58:25;4.43;;;3.20;;
7539;SDS011;3811;49.006;12.076;2022-07-29T05:00:52;3.73;;;3.47;;
7539;SDS011;3811;49.006;12.076;2022-07-29T05:03:19;6.07;;;3.77;;
7539;SDS011;3811;49.006;12.076;2022-07-29T05:05:51;5.53;;;3.37;;
7539;SDS011;3811;49.006;12.076;2022-07-29T05:08:18;4.87;;;3.40;;
7539;SDS011;3811;49.006;12.076;2022-07-29T05:10:46;3.93;;;3.23;;
7539;SDS011;3811;49.006;12.076;2022-07-29T05:13:13;3.27;;;2.87;;
7539;SDS011;3811;49.006;12.076;2022-07-29T05:15:41;3.73;;;3.30;;
7539;SDS011;3811;49.006;12.076;2022-07-29T05:18:08;5.60;;;3.57;;
7539;SDS011;3811;49.006;12.076;2022-07-29T05:20:36;6.20;;;3.33;;
7539;SDS011;3811;49.006;12.076;2022-07-29T05:23:05;4.43;;;3.20;;
7539;SDS011;3811;49.006;12.076;2022-07-29T05:25:32;4.07;;;3.10;;
7539;SDS011;3811;49.006;12.076;2022-07-29T05:28:00;6.67;;;3.37;;
7539;SDS011;3811;49.006;12.076;2022-07-29T05:30:27;3.50;;;3.20;;
7539;SDS011;3811;49.006;12.076;2022-07-29T05:32:54;5.03;;;3.03;;
7539;SDS011;3811;49.006;12.076;2022-07-29T05:35:21;4.00;;;3.07;;
7539;SDS011;3811;49.006;12.076;2022-07-29T05:37:49;3.60;;;3.30;;
7539;SDS011;3811;49.006;12.076;2022-07-29T05:40:17;3.53;;;3.20;;
7539;SDS011;3811;49.006;12.076;2022-07-29T05:42:45;3.43;;;3.17;;
7539;SDS011;3811;49.006;12.076;2022-07-29T05:45:12;3.33;;;3.13;;
7539;SDS011;3811;49.006;12.076;2022-07-29T05:47:39;7.53;;;3.33;;
7539;SDS011;3811;49.006;12.076;2022-07-29T05:50:07;4.67;;;3.10;;
7539;SDS011;3811;49.006;12.076;2022-07-29T05:52:34;6.77;;;3.20;;
7539;SDS011;3811;49.006;12.076;2022-07-29T05:55:02;3.70;;;3.40;;
7539;SDS011;3811;49.006;12.076;2022-07-29T05:57:32;2.87;;;2.67;;
7539;SDS011;3811;49.006;12.076;2022-07-29T06:00:00;6.20;;;3.67;;
7539;SDS011;3811;49.006;12.076;2022-07-29T06:02:37;3.57;;;3.30;;
7539;SDS011;3811;49.006;12.076;2022-07-29T06:05:05;4.03;;;3.00;;
7539;SDS011;3811;49.006;12.076;2022-07-29T06:07:32;3.93;;;3.27;;
7539;SDS011;3811;49.006;12.076;2022-07-29T06:09:59;3.80;;;3.17;;
7539;SDS011;3811;49.006;12.076;2022-07-29T06:12:27;4.20;;;3.10;;
7539;SDS011;3811;49.006;12.076;2022-07-29T06:14:55;5.40;;;3.73;;
7539;SDS011;3811;49.006;12.076;2022-07-29T06:17:23;3.67;;;3.20;;
7539;SDS011;3811;49.006;12.076;2022-07-29T06:19:50;6.23;;;3.50;;
7539;SDS011;3811;49.006;12.076;2022-07-29T06:22:17;5.60;;;3.30;;
7539;SDS011;3811;49.006;12.076;2022-07-29T06:24:44;4.03;;;3.53;;
7539;SDS011;3811;49.006;12.076;2022-07-29T06:27:12;4.50;;;2.80;;
7539;SDS011;3811;49.006;12.076;2022-07-29T06:29:39;3.20;;;2.90;;
7539;SDS011;3811;49.006;12.076;2022-07-29T06:32:07;5.17;;;3.27;;
7539;SDS011;3811;49.006;12.076;2022-07-29T06:34:35;4.27;;;3.30;;
7539;SDS011;3811;49.006;12.076;2022-07-29T06:37:05;3.97;;;3.60;;
7539;SDS011;3811;49.006;12.076;2022-07-29T06:39:34;5.30;;;2.87;;
7539;SDS011;3811;49.006;12.076;2022-07-29T06:42:02;4.03;;;3.33;;
7539;SDS011;3811;49.006;12.076;2022-07-29T06:44:30;4.00;;;3.00;;
7539;SDS011;3811;49.006;12.076;2022-07-29T06:46:58;7.70;;;3.30;;
7539;SDS011;3811;49.006;12.076;2022-07-29T06:49:27;5.73;;;3.13;;
7539;SDS011;3811;49.006;12.076;2022-07-29T06:51:55;3.77;;;3.17;;
7539;SDS011;3811;49.006;12.076;2022-07-29T06:54:22;7.20;;;3.37;;
7539;SDS011;3811;49.006;12.076;2022-07-29T06:56:49;4.70;;;3.00;;
7539;SDS011;3811;49.006;12.076;2022-07-29T06:59:16;3.93;;;2.90;;
7539;SDS011;3811;49.006;12.076;2022-07-29T07:01:44;6.43;;;3.57;;
7539;SDS011;3811;49.006;12.076;2022-07-29T07:04:12;3.30;;;3.07;;
7539;SDS011;3811;49.006;12.076;2022-07-29T07:06:41;6.80;;;2.80;;
7539;SDS011;3811;49.006;12.076;2022-07-29T07:09:08;6.50;;;3.63;;
7539;SDS011;3811;49.006;12.076;2022-07-29T07:11:35;7.07;;;3.43;;
7539;SDS011;3811;49.006;12.076;2022-07-29T07:14:02;8.47;;;4.00;;
7539;SDS011;3811;49.006;12.076;2022-07-29T07:16:29;8.13;;;3.97;;
7539;SDS011;3811;49.006;12.076;2022-07-29T07:18:56;5.20;;;3.40;;
7539;SDS011;3811;49.006;12.076;2022-07-29T07:21:24;7.20;;;3.73;;
7539;SDS011;3811;49.006;12.076;2022-07-29T07:23:52;6.40;;;3.90;;
7539;SDS011;3811;49.006;12.076;2022-07-29T07:26:19;5.07;;;3.73;;
7539;SDS011;3811;49.006;12.076;2022-07-29T07:28:47;9.03;;;3.37;;
7539;SDS011;3811;49.006;12.076;2022-07-29T07:31:14;4.70;;;3.50;;
7539;SDS011;3811;49.006;12.076;2022-07-29T07:33:41;7.63;;;3.57;;
7539;SDS011;3811;49.006;12.076;2022-07-29T07:36:08;9.33;;;3.30;;
7539;SDS011;3811;49.006;12.076;2022-07-29T07:38:35;4.33;;;3.60;;
7539;SDS011;3811;49.006;12.076;2022-07-29T07:41:04;5.50;;;3.37;;
7539;SDS011;3811;49.006;12.076;2022-07-29T07:43:31;4.50;;;3.57;;
7539;SDS011;3811;49.006;12.076;2022-07-29T07:45:59;5.63;;;3.60;;
7539;SDS011;3811;49.006;12.076;2022-07-29T07:48:26;3.43;;;3.17;;
7539;SDS011;3811;49.006;12.076;2022-07-29T07:50:53;4.30;;;3.47;;
7539;SDS011;3811;49.006;12.076;2022-07-29T07:53:21;6.53;;;3.80;;
7539;SDS011;3811;49.006;12.076;2022-07-29T07:55:48;8.07;;;3.77;;
7539;SDS011;3811;49.006;12.076;2022-07-29T07:58:17;3.97;;;3.67;;
7539;SDS011;3811;49.006;12.076;2022-07-29T08:00:44;3.97;;;3.43;;
7539;SDS011;3811;49.006;12.076;2022-07-29T08:03:12;5.13;;;3.90;;
7539;SDS011;3811;49.006;12.076;2022-07-29T08:05:39;4.37;;;3.77;;
7539;SDS011;3811;49.006;12.076;2022-07-29T08:08:08;6.17;;;3.73;;
7539;SDS011;3811;49.006;12.076;2022-07-29T08:10:35;4.90;;;4.47;;
7539;SDS011;3811;49.006;12.076;2022-07-29T08:13:23;4.73;;;3.80;;
7539;SDS011;3811;49.006;12.076;2022-07-29T08:15:52;4.90;;;3.33;;
7539;SDS011;3811;49.006;12.076;2022-07-29T08:18:24;5.57;;;3.47;;
7539;SDS011;3811;49.006;12.076;2022-07-29T08:20:51;6.00;;;3.97;;
7539;SDS011;3811;49.006;12.076;2022-07-29T08:23:19;5.40;;;4.10;;
7539;SDS011;3811;49.006;12.076;2022-07-29T08:25:46;4.33;;;3.80;;
7539;SDS011;3811;49.006;12.076;2022-07-29T08:28:13;4.67;;;4.27;;
7539;SDS011;3811;49.006;12.076;2022-07-29T08:30:42;4.43;;;3.83;;
7539;SDS011;3811;49.006;12.076;2022-07-29T08:33:09;6.87;;;3.67;;
7539;SDS011;3811;49.006;12.076;2022-07-29T08:35:38;4.30;;;4.00;;
7539;SDS011;3811;49.006;12.076;2022-07-29T08:38:05;5.90;;;4.53;;
7539;SDS011;3811;49.006;12.076;2022-07-29T08:40:32;5.80;;;4.30;;
7539;SDS011;3811;49.006;12.076;2022-07-29T08:43:03;6.30;;;3.90;;
7539;SDS011;3811;49.006;12.076;2022-07-29T08:45:34;4.20;;;3.80;;
7539;SDS011;3811;49.006;12.076;2022-07-29T08:48:09;7.37;;;5.00;;
7539;SDS011;3811;49.006;12.076;2022-07-29T08:50:36;5.20;;;4.50;;
7539;SDS011;3811;49.006;12.076;2022-07-29T08:53:05;6.93;;;4.33;;
7539;SDS011;3811;49.006;12.076;2022-07-29T08:55:38;5.47;;;4.60;;
7539;SDS011;3811;49.006;12.076;2022-07-29T08:58:06;9.23;;;4.97;;
7539;SDS011;3811;49.006;12.076;2022-07-29T09:00:34;7.33;;;5.03;;
7539;SDS011;3811;49.006;12.076;2022-07-29T09:03:03;5.97;;;4.93;;
7539;SDS011;3811;49.006;12.076;2022-07-29T09:05:33;6.93;;;5.23;;
7539;SDS011;3811;49.006;12.076;2022-07-29T09:08:01;5.40;;;4.90;;
7539;SDS011;3811;49.006;12.076;2022-07-29T09:10:29;5.53;;;4.83;;
7539;SDS011;3811;49.006;12.076;2022-07-29T09:12:56;7.77;;;4.87;;
7539;SDS011;3811;49.006;12.076;2022-07-29T09:15:24;6.27;;;5.10;;
7539;SDS011;3811;49.006;12.076;2022-07-29T09:17:51;6.50;;;5.20;;
7539;SDS011;3811;49.006;12.076;2022-07-29T09:20:21;5.50;;;5.00;;
7539;SDS011;3811;49.006;12.076;2022-07-29T09:22:49;7.00;;;5.13;;
7539;SDS011;3811;49.006;12.076;2022-07-29T09:25:31;4.83;;;4.43;;
7539;SDS011;3811;49.006;12.076;2022-07-29T09:28:05;6.50;;;4.90;;
7539;SDS011;3811;49.006;12.076;2022-07-29T09:30:35;5.90;;;5.07;;
7539;SDS011;3811;49.006;12.076;2022-07-29T09:33:05;6.13;;;5.60;;
7539;SDS011;3811;49.006;12.076;2022-07-29T09:35:32;5.93;;;5.03;;
7539;SDS011;3811;49.006;12.076;2022-07-29T09:38:10;6.17;;;4.97;;
7539;SDS011;3811;49.006;12.076;2022-07-29T09:40:38;4.87;;;4.47;;
7539;SDS011;3811;49.006;12.076;2022-07-29T09:43:11;5.93;;;5.33;;
7539;SDS011;3811;49.006;12.076;2022-07-29T09:45:39;4.97;;;4.57;;
7539;SDS011;3811;49.006;12.076;2022-07-29T09:48:13;4.93;;;4.43;;
7539;SDS011;3811;49.006;12.076;2022-07-29T09:50:42;5.27;;;4.87;;
7539;SDS011;3811;49.006;12.076;2022-07-29T09:53:11;4.70;;;4.23;;
7539;SDS011;3811;49.006;12.076;2022-07-29T09:55:55;5.13;;;4.60;;
7539;SDS011;3811;49.006;12.076;2022-07-29T09:58:22;4.73;;;4.17;;
7539;SDS011;3811;49.006;12.076;2022-07-29T10:00:51;4.37;;;4.07;;
7539;SDS011;3811;49.006;12.076;2022-07-29T10:03:20;5.73;;;4.17;;
7539;SDS011;3811;49.006;12.076;2022-07-29T10:06:03;5.20;;;3.80;;
7539;SDS011;3811;49.006;12.076;2022-07-29T10:08:33;5.00;;;4.30;;
7539;SDS011;3811;49.006;12.076;2022-07-29T10:11:08;4.27;;;3.97;;
7539;SDS011;3811;49.006;12.076;2022-07-29T10:13:36;5.73;;;4.60;;
7539;SDS011;3811;49.006;12.076;2022-07-29T10:16:04;3.83;;;3.53;;
7539;SDS011;3811;49.006;12.076;2022-07-29T10:18:32;4.53;;;4.13;;
7539;SDS011;3811;49.006;12.076;2022-07-29T10:20:59;5.43;;;4.63;;
7539;SDS011;3811;49.006;12.076;2022-07-29T10:23:27;4.27;;;3.93;;
7539;SDS011;3811;49.006;12.076;2022-07-29T10:25:57;4.67;;;4.10;;
7539;SDS011;3811;49.006;12.076;2022-07-29T10:28:25;4.40;;;4.03;;
7539;SDS011;3811;49.006;12.076;2022-07-29T10:30:52;4.17;;;3.87;;
7539;SDS011;3811;49.006;12.076;2022-07-29T10:33:31;5.77;;;3.70;;
7539;SDS011;3811;49.006;12.076;2022-07-29T10:36:18;3.60;;;3.40;;
7539;SDS011;3811;49.006;12.076;2022-07-29T10:39:05;3.80;;;3.50;;
7539;SDS011;3811;49.006;12.076;2022-07-29T10:44:34;4.50;;;3.50;;
7539;SDS011;3811;49.006;12.076;2022-07-29T10:47:02;3.90;;;3.60;;
7539;SDS011;3811;49.006;12.076;2022-07-29T10:49:29;3.85;;;3.40;;
7539;SDS011;3811;49.006;12.076;2022-07-29T10:51:58;3.10;;;2.90;;
7539;SDS011;3811;49.006;12.076;2022-07-29T10:57:21;3.78;;;3.47;;
7539;SDS011;3811;49.006;12.076;2022-07-29T11:02:52;3.55;;;3.25;;
7539;SDS011;3811;49.006;12.076;2022-07-29T11:05:21;3.87;;;3.30;;
7539;SDS011;3811;49.006;12.076;2022-07-29T11:14:07;2.97;;;2.70;;
7539;SDS011;3811;49.006;12.076;2022-07-29T11:19:27;3.03;;;2.83;;
7539;SDS011;3811;49.006;12.076;2022-07-29T11:21:55;2.97;;;2.77;;
7539;SDS011;3811;49.006;12.076;2022-07-29T11:24:23;3.10;;;2.93;;
7539;SDS011;3811;49.006;12.076;2022-07-29T11:27:06;3.17;;;2.97;;
7539;SDS011;3811;49.006;12.076;2022-07-29T11:29:37;2.95;;;2.70;;
7539;SDS011;3811;49.006;12.076;2022-07-29T11:32:09;3.20;;;3.00;;
7539;SDS011;3811;49.006;12.076;2022-07-29T11:34:38;2.60;;;2.50;;
7539;SDS011;3811;49.006;12.076;2022-07-29T11:37:18;2.78;;;2.58;;
7539;SDS011;3811;49.006;12.076;2022-07-29T11:39:47;2.40;;;2.30;;
7539;SDS011;3811;49.006;12.076;2022-07-29T11:45:25;2.95;;;2.75;;
7539;SDS011;3811;49.006;12.076;2022-07-29T11:48:17;3.53;;;2.57;;
7539;SDS011;3811;49.006;12.076;2022-07-29T11:50:44;3.63;;;2.33;;
7539;SDS011;3811;49.006;12.076;2022-07-29T11:53:12;2.80;;;2.60;;
7539;SDS011;3811;49.006;12.076;2022-07-29T11:55:40;2.80;;;2.60;;
7539;SDS011;3811;49.006;12.076;2022-07-29T11:58:07;2.60;;;2.43;;
7539;SDS011;3811;49.006;12.076;2022-07-29T12:00:37;2.63;;;2.53;;
7539;SDS011;3811;49.006;12.076;2022-07-29T12:03:06;3.00;;;2.70;;
7539;SDS011;3811;49.006;12.076;2022-07-29T12:05:36;5.00;;;2.27;;
7539;SDS011;3811;49.006;12.076;2022-07-29T12:08:06;2.80;;;2.60;;
7539;SDS011;3811;49.006;12.076;2022-07-29T12:10:38;2.30;;;2.20;;
7539;SDS011;3811;49.006;12.076;2022-07-29T12:13:05;2.73;;;2.60;;
7539;SDS011;3811;49.006;12.076;2022-07-29T12:15:32;2.43;;;2.33;;
7539;SDS011;3811;49.006;12.076;2022-07-29T12:18:10;2.57;;;2.33;;
7539;SDS011;3811;49.006;12.076;2022-07-29T12:20:38;3.33;;;2.57;;
7539;SDS011;3811;49.006;12.076;2022-07-29T12:23:06;2.80;;;2.60;;
7539;SDS011;3811;49.006;12.076;2022-07-29T12:25:34;3.00;;;2.70;;
7539;SDS011;3811;49.006;12.076;2022-07-29T12:28:03;2.83;;;2.63;;
7539;SDS011;3811;49.006;12.076;2022-07-29T12:30:42;2.70;;;2.50;;
7539;SDS011;3811;49.006;12.076;2022-07-29T12:33:20;3.00;;;2.53;;
7539;SDS011;3811;49.006;12.076;2022-07-29T12:35:49;4.50;;;2.60;;
7539;SDS011;3811;49.006;12.076;2022-07-29T12:38:18;2.70;;;2.50;;
7539;SDS011;3811;49.006;12.076;2022-07-29T12:40:46;3.37;;;2.50;;
7539;SDS011;3811;49.006;12.076;2022-07-29T12:43:16;2.47;;;2.37;;
7539;SDS011;3811;49.006;12.076;2022-07-29T12:45:46;2.60;;;2.40;;
7539;SDS011;3811;49.006;12.076;2022-07-29T12:48:15;2.80;;;2.33;;
7539;SDS011;3811;49.006;12.076;2022-07-29T12:50:53;2.70;;;2.60;;
7539;SDS011;3811;49.006;12.076;2022-07-29T12:53:22;2.50;;;2.40;;
7539;SDS011;3811;49.006;12.076;2022-07-29T12:55:50;4.00;;;2.53;;
7539;SDS011;3811;49.006;12.076;2022-07-29T12:58:26;3.60;;;2.73;;
7539;SDS011;3811;49.006;12.076;2022-07-29T13:00:59;2.80;;;2.60;;
7539;SDS011;3811;49.006;12.076;2022-07-29T13:03:27;2.70;;;2.50;;
7539;SDS011;3811;49.006;12.076;2022-07-29T13:05:56;2.40;;;2.30;;
7539;SDS011;3811;49.006;12.076;2022-07-29T13:08:23;2.33;;;2.23;;
7539;SDS011;3811;49.006;12.076;2022-07-29T13:10:50;4.27;;;2.40;;
7539;SDS011;3811;49.006;12.076;2022-07-29T13:13:21;3.30;;;2.03;;
7539;SDS011;3811;49.006;12.076;2022-07-29T13:15:53;2.67;;;2.47;;
7539;SDS011;3811;49.006;12.076;2022-07-29T13:18:33;2.60;;;2.40;;
7539;SDS011;3811;49.006;12.076;2022-07-29T13:21:11;2.53;;;2.35;;
7539;SDS011;3811;49.006;12.076;2022-07-29T13:23:39;2.25;;;2.15;;
7539;SDS011;3811;49.006;12.076;2022-07-29T13:26:06;2.58;;;2.38;;
7539;SDS011;3811;49.006;12.076;2022-07-29T13:28:34;5.70;;;2.17;;
7539;SDS011;3811;49.006;12.076;2022-07-29T13:31:01;6.03;;;1.90;;
7539;SDS011;3811;49.006;12.076;2022-07-29T13:33:29;3.65;;;2.05;;
7539;SDS011;3811;49.006;12.076;2022-07-29T13:35:57;2.10;;;2.00;;
7539;SDS011;3811;49.006;12.076;2022-07-29T13:38:25;2.20;;;2.08;;
7539;SDS011;3811;49.006;12.076;2022-07-29T13:40:53;2.22;;;2.13;;
7539;SDS011;3811;49.006;12.076;2022-07-29T13:43:20;3.08;;;2.00;;
7539;SDS011;3811;49.006;12.076;2022-07-29T13:45:47;2.45;;;2.10;;
7539;SDS011;3811;49.006;12.076;2022-07-29T13:48:14;2.45;;;2.28;;
7539;SDS011;3811;49.006;12.076;2022-07-29T13:50:41;4.05;;;2.10;;
7539;SDS011;3811;49.006;12.076;2022-07-29T13:53:08;2.17;;;1.98;;
7539;SDS011;3811;49.006;12.076;2022-07-29T13:55:37;1.98;;;1.88;;
7539;SDS011;3811;49.006;12.076;2022-07-29T13:58:04;2.38;;;2.10;;
7539;SDS011;3811;49.006;12.076;2022-07-29T14:00:31;2.10;;;2.00;;
7539;SDS011;3811;49.006;12.076;2022-07-29T14:02:58;2.20;;;2.10;;
7539;SDS011;3811;49.006;12.076;2022-07-29T14:05:25;2.13;;;2.03;;
7539;SDS011;3811;49.006;12.076;2022-07-29T14:07:52;2.13;;;2.00;;
7539;SDS011;3811;49.006;12.076;2022-07-29T14:10:19;1.92;;;1.75;;
7539;SDS011;3811;49.006;12.076;2022-07-29T14:12:48;2.20;;;1.90;;
7539;SDS011;3811;49.006;12.076;2022-07-29T14:15:15;2.28;;;2.08;;
7539;SDS011;3811;49.006;12.076;2022-07-29T14:17:44;2.13;;;1.80;;
7539;SDS011;3811;49.006;12.076;2022-07-29T14:20:11;2.90;;;1.93;;
7539;SDS011;3811;49.006;12.076;2022-07-29T14:22:40;2.07;;;1.97;;
7539;SDS011;3811;49.006;12.076;2022-07-29T14:25:08;2.93;;;1.97;;
7539;SDS011;3811;49.006;12.076;2022-07-29T14:27:35;1.80;;;1.70;;
7539;SDS011;3811;49.006;12.076;2022-07-29T14:30:04;1.90;;;1.80;;
7539;SDS011;3811;49.006;12.076;2022-07-29T14:32:32;2.60;;;1.70;;
7539;SDS011;3811;49.006;12.076;2022-07-29T14:34:59;1.80;;;1.70;;
7539;SDS011;3811;49.006;12.076;2022-07-29T14:37:27;2.17;;;1.97;;
7539;SDS011;3811;49.006;12.076;2022-07-29T14:39:54;2.17;;;1.80;;
7539;SDS011;3811;49.006;12.076;2022-07-29T14:42:24;2.00;;;1.90;;
7539;SDS011;3811;49.006;12.076;2022-07-29T14:44:51;3.40;;;1.87;;
7539;SDS011;3811;49.006;12.076;2022-07-29T14:47:20;2.33;;;1.80;;
7539;SDS011;3811;49.006;12.076;2022-07-29T14:49:48;2.40;;;2.20;;
7539;SDS011;3811;49.006;12.076;2022-07-29T14:52:15;1.57;;;1.47;;
7539;SDS011;3811;49.006;12.076;2022-07-29T14:54:47;3.77;;;1.80;;
7539;SDS011;3811;49.006;12.076;2022-07-29T14:57:14;2.00;;;1.90;;
7539;SDS011;3811;49.006;12.076;2022-07-29T14:59:41;1.90;;;1.80;;
7539;SDS011;3811;49.006;12.076;2022-07-29T15:02:09;2.10;;;1.90;;
7539;SDS011;3811;49.006;12.076;2022-07-29T15:04:37;2.27;;;2.17;;
7539;SDS011;3811;49.006;12.076;2022-07-29T15:07:04;1.80;;;1.70;;
7539;SDS011;3811;49.006;12.076;2022-07-29T15:09:31;2.43;;;2.30;;
7539;SDS011;3811;49.006;12.076;2022-07-29T15:11:59;2.03;;;1.93;;
7539;SDS011;3811;49.006;12.076;2022-07-29T15:14:28;2.10;;;2.00;;
7539;SDS011;3811;49.006;12.076;2022-07-29T15:16:56;1.90;;;1.80;;
7539;SDS011;3811;49.006;12.076;2022-07-29T15:19:24;2.30;;;2.20;;
7539;SDS011;3811;49.006;12.076;2022-07-29T15:21:52;2.23;;;2.13;;
7539;SDS011;3811;49.006;12.076;2022-07-29T15:24:19;2.53;;;2.13;;
7539;SDS011;3811;49.006;12.076;2022-07-29T15:26:47;2.10;;;2.00;;
7539;SDS011;3811;49.006;12.076;2022-07-29T15:29:14;2.23;;;2.07;;
7539;SDS011;3811;49.006;12.076;2022-07-29T15:31:42;2.03;;;1.83;;
7539;SDS011;3811;49.006;12.076;2022-07-29T15:34:09;2.00;;;1.90;;